首页
METAR-TAF:

METAR-TAF

机场 :

阿必尚國際機場

阿比让, 科特迪瓦

纬度: 05-15N, 经度: 003-56W, 海拔: 7米

当前天气观测

该预报发布于21分钟前的22:23 UTC
风速7节,风向西转西南
温度 27°C
湿度 89%
气压 1013 hPa
能見度: 8000
散云层高于1100英尺
多云层高于1800英尺

METAR: DIAP 252223Z 25007KT 8000 SCT011 BKN018 27/25 Q1013 NOSIG

时间: 22:44 (22:44 UTC)

预报

该预报发布于5小时和38分钟前的17:06 UTC
预报有效从25日的 18点(UTC)到 26日的 24点(UTC)
风速8节,风向西南
能見度: 8000
散云层高于1200英尺
多云层高于4000英尺
几率 30% :
短暂存在
从 25日的 18点(UTC)到 25日的 21点(UTC)
能見度: 4000
多云层高于1000英尺
少量云层高于2000英尺, 积雨云.
多云层高于3000英尺
雷暴, 雨
短暂存在
从 25日的 23点(UTC)到 26日的 04点(UTC)
能見度: 3000
多云层高于1000英尺
少量云层高于2000英尺, 积雨云.
阴天层高于3000英尺
雷暴, 雨
几率 40% :
短暂存在
从 26日的 04点(UTC)到 26日的 09点(UTC)
能見度: 4000
多云层高于1000英尺
多云层高于3000英尺
几率 30% :
短暂存在
从 26日的 09点(UTC)到 26日的 13点(UTC)
能見度: 4000
少量云层高于500英尺
多云层高于1000英尺
多云层高于3000英尺
毛毛雨, 雨,

TAF: DIAP 251706Z 2518/2624 23008KT 8000 SCT012 BKN040 PROB30 TEMPO 2518/2521 4000 TSRA BKN010 FEW020CB BKN030 TEMPO 2523/2604 3000 TSRA BKN010 FEW020CB OVC030 PROB40 TEMPO 2604/2609 4000 RA BKN010 BKN030 PROB30 TEMPO 2609/2613 4000 DZRA FEW005 BKN010 BKN030

超过4000个机场的气象观测和天气预报(METAR&TAF报告)。

可查询的气象台以黄色和红色小点在地图上表示。

将鼠标移到小点上方,可查看气象台名称。

然后点击查看天气观测和预报。

如需切换地图:点击带黑十字的绿色按钮放大地图;点击带横线的绿色按钮缩小地图;或者点击绿色箭头查看邻近地区的地图。


METAR-TAF: